Time;durP1;ratioP1;P1;durP2;ratioP2;P2;SDS_P1;SDS_P2;PMS_P1;PMS_P2;Temp;Humidity;BMP_temperature;BMP_pressure;BME280_temperature;BME280_humidity;BME280_pressure;Samples;Min_cycle;Max_cycle;Signal;HPM_P1;HPM_P2
2023/08/30 00:02:03;;;;;;;12.30;6.40;;;;;;;;;;4416518;32;317556;-80
2023/08/30 00:04:31;;;;;;;8.35;6.47;;;;;;;;;;4403550;32;354634;-79
2023/08/30 00:06:58;;;;;;;14.70;8.10;;;;;;;;;;4416390;32;316633;-88
2023/08/30 00:09:26;;;;;;;13.02;8.00;;;;;;;;;;4405519;32;317931;-86
2023/08/30 00:11:55;;;;;;;9.50;7.15;;;;;;;;;;4416647;32;317573;-87
2023/08/30 00:14:22;;;;;;;8.57;6.65;;;;;;;;;;4406147;32;316631;-86
2023/08/30 00:16:50;;;;;;;10.90;5.93;;;;;;;;;;4397644;32;323361;-86
2023/08/30 00:19:17;;;;;;;10.75;7.32;;;;;;;;;;4416810;32;317717;-86
2023/08/30 00:21:45;;;;;;;14.45;7.45;;;;;;;;;;4414871;32;317732;-86
2023/08/30 00:24:12;;;;;;;10.93;6.65;;;;;;;;;;4406429;32;317840;-86
2023/08/30 00:26:40;;;;;;;12.82;6.85;;;;;;;;;;4415974;32;358334;-87
2023/08/30 00:29:09;;;;;;;12.13;6.85;;;;;;;;;;4404931;32;318022;-86
2023/08/30 00:31:37;;;;;;;10.00;6.90;;;;;;;;;;4415846;32;317713;-80
2023/08/30 00:34:04;;;;;;;13.18;7.12;;;;;;;;;;4405600;32;317749;-77
2023/08/30 00:36:32;;;;;;;9.90;6.32;;;;;;;;;;4414907;32;317890;-82
2023/08/30 00:38:59;;;;;;;11.57;7.18;;;;;;;;;;4406520;32;316776;-80
2023/08/30 00:41:27;;;;;;;12.65;7.62;;;;;;;;;;4414601;32;317644;-82
2023/08/30 00:43:56;;;;;;;12.73;6.87;;;;;;;;;;4403555;32;318217;-78
2023/08/30 00:46:25;;;;;;;12.37;6.35;;;;;;;;;;4415961;32;317885;-79
2023/08/30 00:48:53;;;;;;;8.68;7.18;;;;;;;;;;4404108;32;317918;-78
2023/08/30 00:51:21;;;;;;;13.07;7.37;;;;;;;;;;4418283;32;317059;-84
2023/08/30 00:53:49;;;;;;;10.48;7.22;;;;;;;;;;4417360;32;317740;-78
2023/08/30 00:56:18;;;;;;;9.43;6.82;;;;;;;;;;4404184;32;417021;-81
2023/08/30 00:58:46;;;;;;;12.82;6.55;;;;;;;;;;4417843;32;316930;-79
2023/08/30 01:01:14;;;;;;;17.83;6.57;;;;;;;;;;4405664;32;328581;-81
2023/08/30 01:03:43;;;;;;;12.00;7.25;;;;;;;;;;4419102;32;317632;-84
2023/08/30 01:06:10;;;;;;;11.07;7.25;;;;;;;;;;4407186;32;318116;-78
2023/08/30 01:08:39;;;;;;;10.75;6.60;;;;;;;;;;4419225;32;317867;-83
2023/08/30 01:11:16;;;;;;;11.00;7.45;;;;;;;;;;4405954;32;317912;-83
2023/08/30 01:13:48;;;;;;;13.75;6.25;;;;;;;;;;4418906;32;317826;-84
2023/08/30 01:16:16;;;;;;;14.73;7.25;;;;;;;;;;4403818;32;416809;-81
2023/08/30 01:18:46;;;;;;;13.65;7.12;;;;;;;;;;4415958;32;317574;-78
2023/08/30 01:21:23;;;;;;;8.80;7.20;;;;;;;;;;4412381;32;317960;-80
2023/08/30 01:23:57;;;;;;;11.38;7.45;;;;;;;;;;4407654;32;316932;-86
2023/08/30 01:26:38;;;;;;;8.32;7.37;;;;;;;;;;4414213;32;317825;-78
2023/08/30 01:29:09;;;;;;;10.32;7.07;;;;;;;;;;4412544;32;316959;-81
2023/08/30 01:31:38;;;;;;;14.18;7.87;;;;;;;;;;4418072;32;316773;-79
2023/08/30 01:34:05;;;;;;;14.40;7.65;;;;;;;;;;4408102;32;316681;-84
2023/08/30 01:36:33;;;;;;;15.77;7.32;;;;;;;;;;4416577;32;346843;-81
2023/08/30 01:39:02;;;;;;;10.87;7.73;;;;;;;;;;4404941;32;317599;-81
2023/08/30 01:41:31;;;;;;;10.88;8.13;;;;;;;;;;4417955;32;318166;-82
2023/08/30 01:43:59;;;;;;;13.77;9.98;;;;;;;;;;4405996;32;317674;-86
2023/08/30 01:46:28;;;;;;;15.95;10.57;;;;;;;;;;4416324;32;317885;-85
2023/08/30 01:48:58;;;;;;;15.50;9.63;;;;;;;;;;4406853;32;318841;-81
2023/08/30 01:51:25;;;;;;;14.85;9.35;;;;;;;;;;4416488;32;317923;-81
2023/08/30 01:53:54;;;;;;;20.58;10.60;;;;;;;;;;4402971;32;346836;-84
2023/08/30 01:56:21;;;;;;;17.45;10.23;;;;;;;;;;4415322;32;318478;-79
2023/08/30 01:58:48;;;;;;;16.50;10.95;;;;;;;;;;4417130;32;358885;-85
2023/08/30 02:01:16;;;;;;;17.08;10.27;;;;;;;;;;4403455;32;418225;-84
2023/08/30 02:03:46;;;;;;;17.52;9.93;;;;;;;;;;4417680;32;318673;-84
2023/08/30 02:06:20;;;;;;;16.00;9.68;;;;;;;;;;4405466;32;330529;-79
2023/08/30 02:08:54;;;;;;;16.12;9.40;;;;;;;;;;4417770;32;317812;-78
2023/08/30 02:11:27;;;;;;;12.05;8.80;;;;;;;;;;4404634;32;417247;-80
2023/08/30 02:13:59;;;;;;;11.05;8.27;;;;;;;;;;4407972;32;316482;-78
2023/08/30 02:16:27;;;;;;;13.52;9.38;;;;;;;;;;4417355;32;317431;-77
2023/08/30 02:18:57;;;;;;;15.80;9.07;;;;;;;;;;4416472;32;209280;-77
2023/08/30 02:21:24;;;;;;;16.17;9.07;;;;;;;;;;4414868;32;317818;-77
2023/08/30 02:23:55;;;;;;;16.65;8.55;;;;;;;;;;4403688;32;317860;-78
2023/08/30 02:26:22;;;;;;;12.88;9.07;;;;;;;;;;4417266;32;317744;-77
2023/08/30 02:28:50;;;;;;;18.25;9.60;;;;;;;;;;4402433;32;329940;-78
2023/08/30 02:31:18;;;;;;;16.62;10.27;;;;;;;;;;4416406;32;317736;-78
2023/08/30 02:33:45;;;;;;;15.25;9.40;;;;;;;;;;4415959;32;318744;-77
2023/08/30 02:36:14;;;;;;;12.75;9.32;;;;;;;;;;4405953;32;338377;-77
2023/08/30 02:38:41;;;;;;;17.87;9.27;;;;;;;;;;4417637;32;317710;-77
2023/08/30 02:41:10;;;;;;;16.30;9.35;;;;;;;;;;4405979;32;318021;-77
2023/08/30 02:43:37;;;;;;;13.95;9.13;;;;;;;;;;4415910;32;317856;-77
2023/08/30 02:46:05;;;;;;;13.68;8.98;;;;;;;;;;4410773;32;318126;-79
2023/08/30 02:48:33;;;;;;;19.95;9.52;;;;;;;;;;4417402;32;317797;-77
2023/08/30 02:51:00;;;;;;;14.38;8.63;;;;;;;;;;4406654;32;317943;-77
2023/08/30 02:53:32;;;;;;;16.40;8.13;;;;;;;;;;4415739;32;316785;-77
2023/08/30 02:56:00;;;;;;;15.23;8.85;;;;;;;;;;4405570;32;358302;-77
2023/08/30 02:58:27;;;;;;;12.13;8.70;;;;;;;;;;4415082;32;317776;-77
2023/08/30 03:00:55;;;;;;;14.20;7.97;;;;;;;;;;4404952;32;318113;-77
2023/08/30 03:03:22;;;;;;;20.05;8.25;;;;;;;;;;4414012;32;317798;-78
2023/08/30 03:05:50;;;;;;;14.93;8.15;;;;;;;;;;4406377;32;318000;-79
2023/08/30 03:08:17;;;;;;;10.70;7.82;;;;;;;;;;4416038;32;317769;-87
2023/08/30 03:10:46;;;;;;;10.77;7.18;;;;;;;;;;4416677;32;317846;-86
2023/08/30 03:13:13;;;;;;;12.98;7.47;;;;;;;;;;4406111;32;317843;-79
2023/08/30 03:15:41;;;;;;;11.05;8.00;;;;;;;;;;4416705;32;317922;-80
2023/08/30 03:18:09;;;;;;;18.62;7.68;;;;;;;;;;4404377;32;357509;-81
2023/08/30 03:20:37;;;;;;;12.60;7.90;;;;;;;;;;4416724;32;317869;-78
2023/08/30 03:23:04;;;;;;;14.93;8.95;;;;;;;;;;4404062;32;318018;-81
2023/08/30 03:25:32;;;;;;;12.73;8.23;;;;;;;;;;4416051;32;318053;-78
2023/08/30 03:28:01;;;;;;;17.02;9.23;;;;;;;;;;4406581;32;318030;-78
2023/08/30 03:30:30;;;;;;;12.18;8.32;;;;;;;;;;4416766;32;317727;-78
2023/08/30 03:32:58;;;;;;;15.02;8.63;;;;;;;;;;4406457;32;317728;-78
2023/08/30 03:35:25;;;;;;;21.37;10.40;;;;;;;;;;4416997;32;317679;-79
2023/08/30 03:37:54;;;;;;;13.48;8.40;;;;;;;;;;4404831;32;319082;-79
2023/08/30 03:40:21;;;;;;;14.77;9.02;;;;;;;;;;4416614;32;317721;-86
2023/08/30 03:42:48;;;;;;;18.62;8.98;;;;;;;;;;4416421;32;318040;-85
2023/08/30 03:45:18;;;;;;;21.20;8.98;;;;;;;;;;4402801;32;417417;-81
2023/08/30 03:47:45;;;;;;;17.50;9.05;;;;;;;;;;4415324;32;317783;-79
2023/08/30 03:50:13;;;;;;;19.17;8.77;;;;;;;;;;4406926;32;317802;-78
2023/08/30 03:52:40;;;;;;;15.30;9.95;;;;;;;;;;4415091;32;317761;-83
2023/08/30 03:55:08;;;;;;;13.13;9.60;;;;;;;;;;4406311;32;341161;-88
2023/08/30 03:57:36;;;;;;;21.52;8.98;;;;;;;;;;4416355;32;317900;-78
2023/08/30 04:00:04;;;;;;;15.48;9.13;;;;;;;;;;4405163;32;317961;-78
2023/08/30 04:02:33;;;;;;;12.63;9.13;;;;;;;;;;4416500;32;317574;-82
2023/08/30 04:05:00;;;;;;;14.70;9.50;;;;;;;;;;4405897;32;317908;-89
2023/08/30 04:07:27;;;;;;;11.68;8.63;;;;;;;;;;4416604;32;317912;-88
2023/08/30 04:09:55;;;;;;;19.33;8.65;;;;;;;;;;4405035;32;345001;-84
2023/08/30 04:12:22;;;;;;;18.37;9.02;;;;;;;;;;4416178;32;318006;-86
2023/08/30 04:14:50;;;;;;;23.85;11.40;;;;;;;;;;4402711;32;328119;-79
2023/08/30 04:17:18;;;;;;;22.65;11.48;;;;;;;;;;4416552;32;318785;-79
2023/08/30 04:19:47;;;;;;;26.73;13.23;;;;;;;;;;4415956;32;318794;-83
2023/08/30 04:22:14;;;;;;;23.98;13.88;;;;;;;;;;4401979;32;418734;-79
2023/08/30 04:24:43;;;;;;;25.52;13.07;;;;;;;;;;4417089;32;318796;-87
2023/08/30 04:27:10;;;;;;;21.65;12.23;;;;;;;;;;4407972;32;318817;-86
2023/08/30 04:29:39;;;;;;;15.07;11.35;;;;;;;;;;4419326;32;319017;-86
2023/08/30 04:32:07;;;;;;;19.23;11.38;;;;;;;;;;4405656;32;319146;-84
2023/08/30 04:34:34;;;;;;;17.48;10.15;;;;;;;;;;4417096;32;318967;-85
2023/08/30 04:37:03;;;;;;;19.48;10.07;;;;;;;;;;4408170;32;318996;-85
2023/08/30 04:39:30;;;;;;;20.25;10.05;;;;;;;;;;4419562;32;319225;-79
2023/08/30 04:41:58;;;;;;;11.32;8.73;;;;;;;;;;4407860;32;318697;-78
2023/08/30 04:44:27;;;;;;;20.52;9.43;;;;;;;;;;4417341;32;317997;-81
2023/08/30 04:46:55;;;;;;;13.52;9.70;;;;;;;;;;4407187;32;318221;-82
2023/08/30 04:49:25;;;;;;;18.35;11.57;;;;;;;;;;4416895;32;317989;-79
2023/08/30 04:51:52;;;;;;;17.42;12.10;;;;;;;;;;4404075;32;325070;-78
2023/08/30 04:54:22;;;;;;;23.12;10.77;;;;;;;;;;4418417;32;318658;-78
2023/08/30 04:56:51;;;;;;;17.52;9.85;;;;;;;;;;4407348;32;318934;-80
2023/08/30 04:59:19;;;;;;;15.20;9.88;;;;;;;;;;4417043;32;318055;-85
2023/08/30 05:01:47;;;;;;;12.18;9.15;;;;;;;;;;4419106;32;317454;-81
2023/08/30 05:04:14;;;;;;;14.95;9.25;;;;;;;;;;4402943;32;415876;-79
2023/08/30 05:06:42;;;;;;;9.88;8.45;;;;;;;;;;4417824;32;317502;-78
2023/08/30 05:09:09;;;;;;;13.25;8.50;;;;;;;;;;4407657;32;316838;-78
2023/08/30 05:11:39;;;;;;;14.18;8.02;;;;;;;;;;4418343;32;317849;-78
2023/08/30 05:14:12;;;;;;;16.10;8.00;;;;;;;;;;4406433;32;318022;-78
2023/08/30 05:16:40;;;;;;;17.10;9.95;;;;;;;;;;4418645;32;317670;-78
2023/08/30 05:19:07;;;;;;;16.80;8.93;;;;;;;;;;4406896;32;317838;-79
2023/08/30 05:21:35;;;;;;;17.12;8.95;;;;;;;;;;4417737;32;317912;-78
2023/08/30 05:24:02;;;;;;;16.67;8.52;;;;;;;;;;4406101;32;317723;-79
2023/08/30 05:26:29;;;;;;;18.90;9.48;;;;;;;;;;4417044;32;317960;-78
2023/08/30 05:28:58;;;;;;;14.57;10.20;;;;;;;;;;4406658;32;317878;-77
2023/08/30 05:31:26;;;;;;;23.33;9.50;;;;;;;;;;4417208;32;318888;-78
2023/08/30 05:33:53;;;;;;;17.45;9.43;;;;;;;;;;4406328;32;318005;-77
2023/08/30 05:36:21;;;;;;;18.67;10.40;;;;;;;;;;4417847;32;318005;-77
2023/08/30 05:38:49;;;;;;;21.67;11.20;;;;;;;;;;4417855;32;319066;-77
2023/08/30 05:41:16;;;;;;;12.60;8.45;;;;;;;;;;4402130;32;418859;-77
2023/08/30 05:43:44;;;;;;;23.30;10.55;;;;;;;;;;4417768;32;317775;-78
2023/08/30 05:46:15;;;;;;;17.27;9.85;;;;;;;;;;4407032;32;319142;-78
2023/08/30 05:48:43;;;;;;;15.40;9.82;;;;;;;;;;4415606;32;317903;-77
2023/08/30 05:51:10;;;;;;;18.40;10.02;;;;;;;;;;4405337;32;317818;-78
2023/08/30 05:53:38;;;;;;;30.85;10.65;;;;;;;;;;4418126;32;318685;-76
2023/08/30 05:56:05;;;;;;;27.53;10.67;;;;;;;;;;4405125;32;319559;-82
2023/08/30 05:58:35;;;;;;;15.32;10.07;;;;;;;;;;4417232;32;318805;-81
2023/08/30 06:01:03;;;;;;;15.80;9.48;;;;;;;;;;4405688;32;319354;-81
2023/08/30 06:03:34;;;;;;;20.02;9.98;;;;;;;;;;4417363;32;332750;-82
2023/08/30 06:06:01;;;;;;;18.87;10.13;;;;;;;;;;4406456;32;317961;-82
2023/08/30 06:08:29;;;;;;;13.43;10.93;;;;;;;;;;4417365;32;318607;-84
2023/08/30 06:10:56;;;;;;;18.17;11.32;;;;;;;;;;4404963;32;318711;-84
2023/08/30 06:13:24;;;;;;;18.80;10.95;;;;;;;;;;4417645;32;318740;-84
2023/08/30 06:15:52;;;;;;;17.05;11.98;;;;;;;;;;4407330;32;318963;-84
2023/08/30 06:18:20;;;;;;;16.40;12.02;;;;;;;;;;4417892;32;318989;-84
2023/08/30 06:20:49;;;;;;;23.35;10.65;;;;;;;;;;4418165;32;319073;-85
2023/08/30 06:23:19;;;;;;;19.67;12.02;;;;;;;;;;4404156;32;418164;-86
2023/08/30 06:25:54;;;;;;;21.80;12.02;;;;;;;;;;4416343;32;319156;-86
2023/08/30 06:28:21;;;;;;;21.35;11.48;;;;;;;;;;4402318;32;420841;-87
2023/08/30 06:30:48;;;;;;;25.42;11.90;;;;;;;;;;4416314;32;319992;-85
2023/08/30 06:33:16;;;;;;;15.27;11.20;;;;;;;;;;4404793;32;418120;-85
2023/08/30 06:35:43;;;;;;;24.90;11.52;;;;;;;;;;4416164;32;329598;-86
2023/08/30 06:38:12;;;;;;;17.73;11.57;;;;;;;;;;4405350;32;318900;-85
2023/08/30 06:40:45;;;;;;;14.07;11.35;;;;;;;;;;4416447;32;319327;-86
2023/08/30 06:43:12;;;;;;;19.45;10.43;;;;;;;;;;4406213;32;319038;-86
2023/08/30 06:45:40;;;;;;;17.00;10.48;;;;;;;;;;4416718;32;318710;-86
2023/08/30 06:48:08;;;;;;;16.65;9.80;;;;;;;;;;4404592;32;319248;-85
2023/08/30 06:50:36;;;;;;;19.85;9.10;;;;;;;;;;4417787;32;317942;-86
2023/08/30 06:53:04;;;;;;;14.77;10.32;;;;;;;;;;4404996;32;317938;-85
2023/08/30 06:55:33;;;;;;;15.02;9.73;;;;;;;;;;4417032;32;319221;-86
2023/08/30 06:58:00;;;;;;;20.52;9.57;;;;;;;;;;4404253;32;318048;-85
2023/08/30 07:00:28;;;;;;;14.98;9.63;;;;;;;;;;4416854;32;317902;-86
2023/08/30 07:02:56;;;;;;;20.70;10.35;;;;;;;;;;4404361;32;317898;-85
2023/08/30 07:05:23;;;;;;;17.58;10.35;;;;;;;;;;4415890;32;319189;-85
2023/08/30 07:07:51;;;;;;;16.85;9.75;;;;;;;;;;4406801;32;319711;-84
2023/08/30 07:10:20;;;;;;;16.87;8.48;;;;;;;;;;4413468;32;318257;-86
2023/08/30 07:12:49;;;;;;;19.67;9.32;;;;;;;;;;4427553;32;343348;-86
2023/08/30 07:15:17;;;;;;;12.05;8.80;;;;;;;;;;4404815;32;418574;-88
2023/08/30 07:17:46;;;;;;;18.40;9.95;;;;;;;;;;4426386;32;209072;-85
2023/08/30 07:20:14;;;;;;;20.77;9.13;;;;;;;;;;4408149;32;317787;-87
2023/08/30 07:22:41;;;;;;;14.13;9.45;;;;;;;;;;4417812;32;330360;-86
2023/08/30 07:25:10;;;;;;;18.70;9.60;;;;;;;;;;4407365;32;317960;-85
2023/08/30 07:27:37;;;;;;;21.37;10.27;;;;;;;;;;4415042;32;340605;-84
2023/08/30 07:30:08;;;;;;;15.25;9.07;;;;;;;;;;4408013;32;318945;-85
2023/08/30 07:32:36;;;;;;;17.25;9.80;;;;;;;;;;4416862;32;317977;-86
2023/08/30 07:35:03;;;;;;;13.65;9.65;;;;;;;;;;4405992;32;317833;-86
2023/08/30 07:37:30;;;;;;;15.32;9.30;;;;;;;;;;4415658;32;317783;-86
2023/08/30 07:39:57;;;;;;;20.00;9.43;;;;;;;;;;4405818;32;317934;-86
2023/08/30 07:42:25;;;;;;;21.60;9.38;;;;;;;;;;4417153;32;317930;-86
2023/08/30 07:44:53;;;;;;;18.67;8.60;;;;;;;;;;4405887;32;318229;-85
2023/08/30 07:47:22;;;;;;;12.82;7.87;;;;;;;;;;4418021;32;317806;-84
2023/08/30 07:49:49;;;;;;;15.65;8.07;;;;;;;;;;4416840;32;317738;-84
2023/08/30 07:52:16;;;;;;;13.30;8.23;;;;;;;;;;4402672;32;417337;-82
2023/08/30 07:54:44;;;;;;;15.32;7.60;;;;;;;;;;4416101;32;317719;-83
2023/08/30 07:57:12;;;;;;;15.27;7.80;;;;;;;;;;4406053;32;317759;-80
2023/08/30 07:59:39;;;;;;;14.73;9.20;;;;;;;;;;4418305;32;317943;-85
2023/08/30 08:02:08;;;;;;;23.87;10.05;;;;;;;;;;4408709;32;317773;-83
2023/08/30 08:04:38;;;;;;;15.38;9.00;;;;;;;;;;4416935;32;318981;-82
2023/08/30 08:07:05;;;;;;;19.00;8.02;;;;;;;;;;4409014;32;319495;-83
2023/08/30 08:09:33;;;;;;;11.45;7.57;;;;;;;;;;4418411;32;317548;-80
2023/08/30 08:12:01;;;;;;;11.82;7.60;;;;;;;;;;4409465;32;317844;-80
2023/08/30 08:14:28;;;;;;;15.15;7.75;;;;;;;;;;4419104;32;317843;-80
2023/08/30 08:16:57;;;;;;;15.00;9.07;;;;;;;;;;4404912;32;345486;-80
2023/08/30 08:19:25;;;;;;;15.20;7.68;;;;;;;;;;4419348;32;317588;-81
2023/08/30 08:21:54;;;;;;;17.83;9.27;;;;;;;;;;4405276;32;327334;-83
2023/08/30 08:24:22;;;;;;;13.18;7.90;;;;;;;;;;4418950;32;317751;-81
2023/08/30 08:26:49;;;;;;;13.07;8.63;;;;;;;;;;4416372;32;317752;-82
2023/08/30 08:29:17;;;;;;;14.60;7.82;;;;;;;;;;4406098;32;417254;-80
2023/08/30 08:31:44;;;;;;;11.75;7.72;;;;;;;;;;4419383;32;317679;-80
2023/08/30 08:34:13;;;;;;;12.07;7.90;;;;;;;;;;4408787;32;317931;-80
2023/08/30 08:36:42;;;;;;;14.95;8.00;;;;;;;;;;4417302;32;317654;-80
2023/08/30 08:39:14;;;;;;;15.05;7.22;;;;;;;;;;4408704;32;317583;-80
2023/08/30 08:41:43;;;;;;;12.10;7.60;;;;;;;;;;4419212;32;317692;-79
2023/08/30 08:44:11;;;;;;;13.68;7.28;;;;;;;;;;4408041;32;317944;-80
2023/08/30 08:46:40;;;;;;;20.50;7.35;;;;;;;;;;4417575;32;317859;-83
2023/08/30 08:49:13;;;;;;;10.87;6.80;;;;;;;;;;4405965;32;317937;-82
2023/08/30 08:51:42;;;;;;;12.05;6.37;;;;;;;;;;4418157;32;317720;-82
2023/08/30 08:54:11;;;;;;;9.52;7.18;;;;;;;;;;4408419;32;318518;-83
2023/08/30 08:56:40;;;;;;;11.95;6.20;;;;;;;;;;4418967;32;316611;-82
2023/08/30 08:59:08;;;;;;;10.80;7.17;;;;;;;;;;4406163;32;317809;-82
2023/08/30 09:01:35;;;;;;;15.57;6.78;;;;;;;;;;4418766;32;317747;-83
2023/08/30 09:04:06;;;;;;;18.65;6.15;;;;;;;;;;4407531;32;318140;-83
2023/08/30 09:06:34;;;;;;;9.98;6.32;;;;;;;;;;4418376;32;317649;-83
2023/08/30 09:09:03;;;;;;;12.20;6.62;;;;;;;;;;4406686;32;317072;-82
2023/08/30 09:11:34;;;;;;;10.40;5.95;;;;;;;;;;4416225;32;317814;-83
2023/08/30 09:14:01;;;;;;;9.68;5.47;;;;;;;;;;4408173;32;317897;-82
2023/08/30 09:16:29;;;;;;;10.93;6.28;;;;;;;;;;4416982;32;316667;-81
2023/08/30 09:19:00;;;;;;;10.18;6.15;;;;;;;;;;4408301;32;317892;-81
2023/08/30 09:21:28;;;;;;;12.95;5.68;;;;;;;;;;4417480;32;317774;-81
2023/08/30 09:23:59;;;;;;;8.65;4.50;;;;;;;;;;4407544;32;317860;-81
2023/08/30 09:26:28;;;;;;;17.33;5.72;;;;;;;;;;4415525;32;316921;-81
2023/08/30 09:28:57;;;;;;;11.95;6.28;;;;;;;;;;4407223;32;317672;-81
2023/08/30 09:31:26;;;;;;;9.32;5.55;;;;;;;;;;4417220;32;318368;-82
2023/08/30 09:34:01;;;;;;;10.55;5.80;;;;;;;;;;4405090;32;316879;-81
2023/08/30 09:36:34;;;;;;;10.00;5.30;;;;;;;;;;4418390;32;317587;-81
2023/08/30 09:39:05;;;;;;;10.05;6.15;;;;;;;;;;4406335;32;317945;-82
2023/08/30 09:41:34;;;;;;;19.40;6.87;;;;;;;;;;4417862;32;317878;-82
2023/08/30 09:44:08;;;;;;;10.43;6.40;;;;;;;;;;4408090;32;317824;-82
2023/08/30 09:46:43;;;;;;;9.90;5.60;;;;;;;;;;4416467;32;317873;-82
2023/08/30 09:49:10;;;;;;;10.55;6.05;;;;;;;;;;4407823;32;316927;-82
2023/08/30 09:51:42;;;;;;;15.73;6.55;;;;;;;;;;4418035;32;317966;-82
2023/08/30 09:54:16;;;;;;;10.85;5.87;;;;;;;;;;4402244;32;318005;-82
2023/08/30 09:56:44;;;;;;;7.82;5.75;;;;;;;;;;4427053;32;323885;-82
2023/08/30 09:59:14;;;;;;;9.15;5.53;;;;;;;;;;4408383;32;316725;-81
2023/08/30 10:01:42;;;;;;;17.67;6.87;;;;;;;;;;4416895;32;316880;-82
2023/08/30 10:04:11;;;;;;;11.05;5.30;;;;;;;;;;4407143;32;317929;-82
2023/08/30 10:06:40;;;;;;;10.18;6.12;;;;;;;;;;4417487;32;317061;-82
2023/08/30 10:09:09;;;;;;;10.88;5.18;;;;;;;;;;4405822;32;317911;-82
2023/08/30 10:11:38;;;;;;;12.27;5.18;;;;;;;;;;4416539;32;318011;-82
2023/08/30 10:14:06;;;;;;;12.35;5.62;;;;;;;;;;4405211;32;317768;-81
2023/08/30 10:16:43;;;;;;;10.52;6.40;;;;;;;;;;4418182;32;317968;-82
2023/08/30 10:19:15;;;;;;;11.05;5.78;;;;;;;;;;4407407;32;318119;-82
2023/08/30 10:21:44;;;;;;;9.05;5.60;;;;;;;;;;4415105;32;317961;-81
2023/08/30 10:24:15;;;;;;;10.95;5.18;;;;;;;;;;4404827;32;316531;-82
2023/08/30 10:26:45;;;;;;;9.85;4.90;;;;;;;;;;4417772;32;316573;-82
2023/08/30 10:29:15;;;;;;;13.93;5.55;;;;;;;;;;4405991;32;316803;-82
2023/08/30 10:31:44;;;;;;;8.73;5.50;;;;;;;;;;4416327;32;317054;-82
2023/08/30 10:34:16;;;;;;;9.90;5.03;;;;;;;;;;4405574;32;316692;-82
2023/08/30 10:36:45;;;;;;;7.35;5.37;;;;;;;;;;4416151;32;316605;-82
2023/08/30 10:39:13;;;;;;;12.27;5.22;;;;;;;;;;4405370;32;316620;-82
2023/08/30 10:41:58;;;;;;;7.45;5.15;;;;;;;;;;4416069;32;317486;-82
2023/08/30 10:44:25;;;;;;;9.30;5.03;;;;;;;;;;4405912;32;416110;-82
2023/08/30 10:46:57;;;;;;;16.12;6.15;;;;;;;;;;4407935;32;317028;-82
2023/08/30 10:49:25;;;;;;;8.82;5.10;;;;;;;;;;4416768;32;317711;-81
2023/08/30 10:51:58;;;;;;;8.80;4.68;;;;;;;;;;4406636;32;316758;-85
2023/08/30 10:54:26;;;;;;;9.95;4.15;;;;;;;;;;4414945;32;317079;-82
2023/08/30 10:56:59;;;;;;;8.25;4.32;;;;;;;;;;4402791;32;349621;-84
2023/08/30 10:59:27;;;;;;;13.75;5.18;;;;;;;;;;4416556;32;316729;-81
2023/08/30 11:01:55;;;;;;;8.50;4.97;;;;;;;;;;4405230;32;317858;-82
2023/08/30 11:04:25;;;;;;;6.55;4.60;;;;;;;;;;4415153;32;316564;-81
2023/08/30 11:06:53;;;;;;;12.25;5.07;;;;;;;;;;4404868;32;316668;-80
2023/08/30 11:09:22;;;;;;;10.07;5.12;;;;;;;;;;4415430;32;317811;-79
2023/08/30 11:11:50;;;;;;;7.90;4.22;;;;;;;;;;4416272;32;317463;-79
2023/08/30 11:14:19;;;;;;;10.75;4.45;;;;;;;;;;4401570;32;386279;-79
2023/08/30 11:16:46;;;;;;;10.38;4.22;;;;;;;;;;4415986;32;318028;-79
2023/08/30 11:19:14;;;;;;;9.63;4.20;;;;;;;;;;4403094;32;317831;-79
2023/08/30 11:21:45;;;;;;;10.38;4.35;;;;;;;;;;4416123;32;316461;-79
2023/08/30 11:24:13;;;;;;;6.25;3.92;;;;;;;;;;4405030;32;317705;-79
2023/08/30 11:26:40;;;;;;;15.40;3.78;;;;;;;;;;4416311;32;316569;-79
2023/08/30 11:29:08;;;;;;;10.85;4.40;;;;;;;;;;4404469;32;317699;-84
2023/08/30 11:31:37;;;;;;;6.50;3.80;;;;;;;;;;4416066;32;317616;-79
2023/08/30 11:34:04;;;;;;;6.37;3.28;;;;;;;;;;4404671;32;316635;-85
2023/08/30 11:36:33;;;;;;;7.62;3.53;;;;;;;;;;4415129;32;316657;-79
2023/08/30 11:39:03;;;;;;;6.50;3.65;;;;;;;;;;4405644;32;316709;-79
2023/08/30 11:41:32;;;;;;;6.47;3.45;;;;;;;;;;4415174;32;316768;-79
2023/08/30 11:44:00;;;;;;;5.53;3.50;;;;;;;;;;4403743;32;316822;-79
2023/08/30 11:46:27;;;;;;;7.32;3.47;;;;;;;;;;4416194;32;316827;-81
2023/08/30 11:48:55;;;;;;;6.28;3.28;;;;;;;;;;4404614;32;319770;-81
2023/08/30 11:51:22;;;;;;;6.25;3.37;;;;;;;;;;4416189;32;317071;-82
2023/08/30 11:53:50;;;;;;;8.82;3.15;;;;;;;;;;4409893;32;316773;-84
2023/08/30 11:56:20;;;;;;;6.72;3.78;;;;;;;;;;4416295;32;316814;-79
2023/08/30 11:58:47;;;;;;;5.00;3.20;;;;;;;;;;4416572;32;316629;-80
2023/08/30 12:01:19;;;;;;;7.50;3.00;;;;;;;;;;4405026;32;316770;-80
2023/08/30 12:03:50;;;;;;;6.87;3.03;;;;;;;;;;4415223;32;317019;-79
2023/08/30 12:06:18;;;;;;;6.20;3.35;;;;;;;;;;4401573;32;415999;-80
2023/08/30 12:08:45;;;;;;;8.38;3.08;;;;;;;;;;4416312;32;315468;-80
2023/08/30 12:11:21;;;;;;;6.75;2.83;;;;;;;;;;4398458;32;317053;-80
2023/08/30 12:13:50;;;;;;;5.78;2.70;;;;;;;;;;4424735;32;317070;-80
2023/08/30 12:16:18;;;;;;;7.30;3.87;;;;;;;;;;4403370;32;387420;-80
2023/08/30 12:18:45;;;;;;;9.95;4.40;;;;;;;;;;4414711;32;317165;-79
2023/08/30 12:21:15;;;;;;;11.43;3.40;;;;;;;;;;4404597;32;316631;-79
2023/08/30 12:23:42;;;;;;;9.65;3.47;;;;;;;;;;4414954;32;317742;-79
2023/08/30 12:26:11;;;;;;;4.80;2.60;;;;;;;;;;4403826;32;316712;-81
2023/08/30 12:28:41;;;;;;;6.80;2.85;;;;;;;;;;4415911;32;317255;-80
2023/08/30 12:31:09;;;;;;;6.85;3.30;;;;;;;;;;4404446;32;316579;-82
2023/08/30 12:33:36;;;;;;;6.20;3.08;;;;;;;;;;4415687;32;316599;-81
2023/08/30 12:36:04;;;;;;;6.82;2.78;;;;;;;;;;4404203;32;316855;-80
2023/08/30 12:38:32;;;;;;;4.95;2.40;;;;;;;;;;4412022;32;317137;-81
2023/08/30 12:41:01;;;;;;;8.15;2.55;;;;;;;;;;4404250;32;317073;-81
2023/08/30 12:43:29;;;;;;;9.15;3.05;;;;;;;;;;4415579;32;316764;-81
2023/08/30 12:45:59;;;;;;;6.87;3.10;;;;;;;;;;4404779;32;316777;-79
2023/08/30 12:48:27;;;;;;;5.95;2.87;;;;;;;;;;4417121;32;316808;-81
2023/08/30 12:50:54;;;;;;;5.72;2.90;;;;;;;;;;4407293;32;316987;-80
2023/08/30 12:53:21;;;;;;;9.27;3.20;;;;;;;;;;4416931;32;316837;-80
2023/08/30 12:55:49;;;;;;;7.62;3.12;;;;;;;;;;4417620;32;316949;-79
2023/08/30 12:58:16;;;;;;;12.10;3.25;;;;;;;;;;4405226;32;416330;-80
2023/08/30 13:00:44;;;;;;;9.25;3.83;;;;;;;;;;4417025;32;317867;-79
2023/08/30 13:03:13;;;;;;;5.18;3.12;;;;;;;;;;4407919;32;316505;-80
2023/08/30 13:05:40;;;;;;;4.82;2.70;;;;;;;;;;4417638;32;316680;-80
2023/08/30 13:08:08;;;;;;;7.18;3.33;;;;;;;;;;4406942;32;316906;-80
2023/08/30 13:10:35;;;;;;;9.65;3.17;;;;;;;;;;4417659;32;316768;-81
2023/08/30 13:13:03;;;;;;;8.10;3.30;;;;;;;;;;4406615;32;316735;-80
2023/08/30 13:15:30;;;;;;;10.95;3.20;;;;;;;;;;4422244;32;316877;-80
2023/08/30 13:17:58;;;;;;;5.90;3.10;;;;;;;;;;4403538;32;318073;-80
2023/08/30 13:20:27;;;;;;;4.85;2.70;;;;;;;;;;4416645;32;316760;-80
2023/08/30 13:22:54;;;;;;;6.30;3.00;;;;;;;;;;4407912;32;316572;-80
2023/08/30 13:25:22;;;;;;;5.95;2.67;;;;;;;;;;4416775;32;315567;-84
2023/08/30 13:27:49;;;;;;;12.15;3.65;;;;;;;;;;4417307;32;316829;-81
2023/08/30 13:30:17;;;;;;;10.63;3.15;;;;;;;;;;4402072;32;387041;-80
2023/08/30 13:32:44;;;;;;;4.80;2.72;;;;;;;;;;4418139;32;318050;-80
2023/08/30 13:35:12;;;;;;;6.70;2.80;;;;;;;;;;4405489;32;316775;-80
2023/08/30 13:37:41;;;;;;;13.45;3.42;;;;;;;;;;4417994;32;316717;-80
2023/08/30 13:40:10;;;;;;;9.40;6.10;;;;;;;;;;4406978;32;317737;-80
2023/08/30 13:42:37;;;;;;;9.85;2.78;;;;;;;;;;4417745;32;316716;-80
2023/08/30 13:45:06;;;;;;;10.02;3.28;;;;;;;;;;4406909;32;315394;-81
2023/08/30 13:47:34;;;;;;;7.47;3.35;;;;;;;;;;4415962;32;347511;-80
2023/08/30 13:50:03;;;;;;;8.45;3.05;;;;;;;;;;4407497;32;316570;-80
2023/08/30 13:52:31;;;;;;;3.95;2.67;;;;;;;;;;4416688;32;316688;-81
2023/08/30 13:55:00;;;;;;;4.78;3.12;;;;;;;;;;4406208;32;316870;-80
2023/08/30 13:57:27;;;;;;;6.30;3.00;;;;;;;;;;4417162;32;316883;-80
2023/08/30 13:59:54;;;;;;;4.85;2.83;;;;;;;;;;4406059;32;363715;-80
2023/08/30 14:02:22;;;;;;;9.73;2.83;;;;;;;;;;4416298;32;315495;-81
2023/08/30 14:04:49;;;;;;;5.43;3.12;;;;;;;;;;4417192;32;316689;-81
2023/08/30 14:07:17;;;;;;;12.93;2.97;;;;;;;;;;4403448;32;415821;-80
2023/08/30 14:09:44;;;;;;;7.95;2.85;;;;;;;;;;4417612;32;317763;-80
2023/08/30 14:12:13;;;;;;;6.55;3.70;;;;;;;;;;4406714;32;316803;-80
2023/08/30 14:14:40;;;;;;;8.88;2.90;;;;;;;;;;4417219;32;316634;-80
2023/08/30 14:17:07;;;;;;;12.57;3.53;;;;;;;;;;4405701;32;316863;-80
2023/08/30 14:19:36;;;;;;;9.10;2.80;;;;;;;;;;4416686;32;317991;-81
2023/08/30 14:22:05;;;;;;;3.35;2.37;;;;;;;;;;4406668;32;316885;-80
2023/08/30 14:24:33;;;;;;;5.10;2.85;;;;;;;;;;4417049;32;316764;-80
2023/08/30 14:27:02;;;;;;;7.57;2.55;;;;;;;;;;4406569;32;316744;-80